createdAt,value
2018-12-09T00:00:51.664Z,71.64
2018-12-09T00:03:33.147Z,71.60
2018-12-09T00:06:21.677Z,71.50
2018-12-09T00:08:50.948Z,71.50
2018-12-09T00:11:20.971Z,71.50
2018-12-09T00:13:50.138Z,71.49
2018-12-09T00:16:19.262Z,71.14
2018-12-09T00:18:48.529Z,71.05
2018-12-09T00:21:17.691Z,70.88
2018-12-09T00:23:46.897Z,70.81
2018-12-09T00:26:16.084Z,71.00
2018-12-09T00:28:45.327Z,70.88
2018-12-09T00:31:14.573Z,70.45
2018-12-09T00:33:43.779Z,70.64
2018-12-09T00:36:13.963Z,70.50
2018-12-09T00:38:43.207Z,70.50
2018-12-09T00:41:12.473Z,70.83
2018-12-09T00:43:42.076Z,71.14
2018-12-09T00:46:11.218Z,71.29
2018-12-09T00:48:40.390Z,70.91
2018-12-09T00:51:09.586Z,70.72
2018-12-09T00:53:39.385Z,70.82
2018-12-09T00:56:08.529Z,70.87
2018-12-09T00:58:37.690Z,70.93
2018-12-09T01:01:06.803Z,70.72
2018-12-09T01:03:35.963Z,70.76
2018-12-09T01:06:06.193Z,70.66
2018-12-09T01:08:35.462Z,70.61
2018-12-09T01:11:04.685Z,70.65
2018-12-09T01:13:36.006Z,70.40
2018-12-09T01:16:05.211Z,70.87
2018-12-09T01:18:35.354Z,70.81
2018-12-09T01:21:05.880Z,70.81
2018-12-09T01:23:35.016Z,70.84
2018-12-09T01:26:04.408Z,70.97
2018-12-09T01:28:33.611Z,71.03
2018-12-09T01:31:02.819Z,71.14
2018-12-09T01:33:32.770Z,70.91
2018-12-09T01:36:02.207Z,71.19
2018-12-09T01:38:31.409Z,71.43
2018-12-09T01:41:01.525Z,71.59
2018-12-09T01:43:30.701Z,71.78
2018-12-09T01:45:59.794Z,71.95
2018-12-09T01:48:28.921Z,71.97
2018-12-09T01:50:58.114Z,72.25
2018-12-09T01:54:40.182Z,72.07
2018-12-09T01:57:09.379Z,72.08
2018-12-09T01:59:38.506Z,72.08
2018-12-09T02:02:07.774Z,71.88
2018-12-09T02:04:36.876Z,71.73
2018-12-09T02:07:06.471Z,72.00
2018-12-09T02:09:35.580Z,71.79
2018-12-09T02:12:04.674Z,71.36
2018-12-09T02:14:33.771Z,71.36
2018-12-09T02:17:02.865Z,71.62
2018-12-09T02:19:32.054Z,71.56
2018-12-09T02:22:01.189Z,71.66
2018-12-09T02:24:31.092Z,71.91
2018-12-09T02:27:02.422Z,72.12
2018-12-09T02:29:33.795Z,71.89
2018-12-09T03:00:50.712Z,71.60
2018-12-09T03:03:19.981Z,71.71
2018-12-09T03:05:49.069Z,71.91
2018-12-09T03:08:18.182Z,72.03
2018-12-09T03:10:47.300Z,71.81
2018-12-09T03:13:16.502Z,71.61
2018-12-09T03:15:46.559Z,71.84
2018-12-09T03:18:20.651Z,71.79
2018-12-09T03:20:49.921Z,71.58
2018-12-09T03:23:19.134Z,71.61
2018-12-09T03:25:48.306Z,71.49
2018-12-09T03:28:17.721Z,71.36
2018-12-09T03:30:46.942Z,70.87
2018-12-09T03:33:16.130Z,70.78
2018-12-09T03:35:45.295Z,70.86
2018-12-09T03:38:14.396Z,70.76
2018-12-09T03:40:44.195Z,70.80
2018-12-09T03:43:13.326Z,70.77
2018-12-09T03:45:43.565Z,70.34
2018-12-09T03:48:11.738Z,70.44
2018-12-09T03:50:40.888Z,70.42
2018-12-09T03:53:09.998Z,70.56
2018-12-09T03:55:39.195Z,70.40
2018-12-09T03:58:08.385Z,70.39
2018-12-09T04:00:38.105Z,70.43
2018-12-09T04:03:07.359Z,70.35
2018-12-09T04:05:36.504Z,70.44
2018-12-09T04:08:05.734Z,70.58
2018-12-09T04:10:34.932Z,70.59
2018-12-09T04:13:04.105Z,70.71
2018-12-09T04:15:37.345Z,70.97
2018-12-09T04:18:06.613Z,71.07
2018-12-09T04:20:35.830Z,71.00
2018-12-09T04:23:04.938Z,71.09
2018-12-09T04:25:34.056Z,71.27
2018-12-09T04:28:03.229Z,70.94
2018-12-09T04:30:32.340Z,70.94
2018-12-09T04:33:01.404Z,70.93
2018-12-09T04:35:30.651Z,70.96
2018-12-09T04:37:59.743Z,70.92
2018-12-09T04:40:28.870Z,71.01
2018-12-09T04:42:58.054Z,71.11
2018-12-09T04:45:27.205Z,71.26
2018-12-09T04:47:56.360Z,71.28
2018-12-09T04:50:25.495Z,71.42
2018-12-09T04:52:54.703Z,71.92
2018-12-09T04:55:23.933Z,72.09
2018-12-09T04:57:53.152Z,72.38
2018-12-09T05:00:33.164Z,72.61
2018-12-09T05:03:02.309Z,72.44
2018-12-09T05:05:32.067Z,72.60
2018-12-09T05:08:01.252Z,72.87
2018-12-09T05:10:30.823Z,72.82
2018-12-09T05:13:00.026Z,72.72
2018-12-09T05:15:29.173Z,72.97
2018-12-09T05:17:58.236Z,72.98
2018-12-09T05:20:27.333Z,72.97
2018-12-09T05:22:56.398Z,73.02
2018-12-09T05:25:25.555Z,72.88
2018-12-09T05:27:54.659Z,72.49
2018-12-09T05:30:24.469Z,72.05
2018-12-09T05:32:54.647Z,72.04
2018-12-09T05:35:23.806Z,71.88
2018-12-09T05:37:54.425Z,71.89
2018-12-09T05:40:23.642Z,71.93
2018-12-09T05:42:52.968Z,71.74
2018-12-09T05:45:22.192Z,72.00
2018-12-09T05:47:52.409Z,71.98
2018-12-09T05:50:21.596Z,72.15
2018-12-09T05:52:50.774Z,72.02
2018-12-09T05:55:19.970Z,72.09
2018-12-09T05:57:49.758Z,71.83
2018-12-09T06:00:19.890Z,71.45
2018-12-09T06:02:55.718Z,71.83
2018-12-09T06:05:24.960Z,71.86
2018-12-09T06:07:54.099Z,71.67
2018-12-09T06:10:23.314Z,71.75
2018-12-09T06:12:52.906Z,71.68
2018-12-09T06:15:22.338Z,71.80
2018-12-09T06:17:52.335Z,71.81
2018-12-09T06:20:21.511Z,72.07
2018-12-09T06:22:50.845Z,71.86
2018-12-09T06:25:21.064Z,71.89
2018-12-09T06:27:50.770Z,71.88
2018-12-09T06:30:19.941Z,71.86
2018-12-09T06:32:49.103Z,72.00
2018-12-09T06:35:18.322Z,72.14
2018-12-09T06:37:48.156Z,72.07
2018-12-09T06:40:17.290Z,72.29
2018-12-09T06:42:46.540Z,72.02
2018-12-09T06:45:15.605Z,72.32
2018-12-09T06:47:44.803Z,72.04
2018-12-09T06:50:14.009Z,72.11
2018-12-09T06:52:43.541Z,72.15
2018-12-09T06:55:12.619Z,72.11
2018-12-09T06:57:42.755Z,72.04
2018-12-09T07:00:12.264Z,72.14
2018-12-09T07:02:41.372Z,71.97
2018-12-09T07:05:10.526Z,72.03
2018-12-09T07:07:39.724Z,72.05
2018-12-09T07:10:10.412Z,72.28
2018-12-09T07:12:39.519Z,72.49
2018-12-09T07:15:09.702Z,72.54
2018-12-09T07:17:39.957Z,72.67
2018-12-09T07:20:09.973Z,72.66
2018-12-09T07:22:40.145Z,72.83
2018-12-09T07:25:09.695Z,72.55
2018-12-09T07:27:39.035Z,72.52
2018-12-09T07:30:10.038Z,72.48
2018-12-09T07:32:39.236Z,72.56
2018-12-09T07:35:08.742Z,72.57
2018-12-09T07:37:38.049Z,72.40
2018-12-09T07:40:09.799Z,72.06
2018-12-09T07:42:39.040Z,72.15
2018-12-09T07:45:08.397Z,72.12
2018-12-09T07:47:37.540Z,72.29
2018-12-09T07:50:07.417Z,72.21
2018-12-09T07:52:37.331Z,72.04
2018-12-09T07:55:06.513Z,71.89
2018-12-09T07:57:35.754Z,71.46
2018-12-09T08:00:05.348Z,71.26
2018-12-09T08:02:36.172Z,71.13
2018-12-09T08:05:09.261Z,71.13
2018-12-09T08:07:39.894Z,71.22
2018-12-09T08:10:10.727Z,71.37
2018-12-09T08:12:41.796Z,71.43
2018-12-09T08:15:12.912Z,71.30
2018-12-09T08:17:43.166Z,71.54
2018-12-09T08:20:13.898Z,71.45
2018-12-09T08:22:44.137Z,71.40
2018-12-09T08:25:13.322Z,71.46
2018-12-09T08:27:43.091Z,71.62
2018-12-09T08:30:12.399Z,71.70
2018-12-09T08:32:41.510Z,71.72
2018-12-09T08:35:11.525Z,72.22
2018-12-09T08:37:40.727Z,72.46
2018-12-09T08:40:09.860Z,72.61
2018-12-09T08:42:39.070Z,73.03
2018-12-09T08:45:08.310Z,73.41
2018-12-09T08:47:37.501Z,73.41
2018-12-09T08:50:08.648Z,72.98
2018-12-09T08:52:37.744Z,72.75
2018-12-09T08:55:07.028Z,72.31
2018-12-09T08:57:36.129Z,71.90
2018-12-09T09:00:05.471Z,71.87
2018-12-09T09:02:35.365Z,71.72
2018-12-09T09:05:04.468Z,71.51
2018-12-09T09:07:34.196Z,71.39
2018-12-09T09:10:03.809Z,71.45
2018-12-09T09:12:33.111Z,71.16
2018-12-09T09:15:02.469Z,71.36
2018-12-09T09:17:31.629Z,71.20
2018-12-09T09:20:00.867Z,71.37
2018-12-09T09:22:30.269Z,71.23
2018-12-09T09:24:59.515Z,71.31
2018-12-09T09:27:28.616Z,71.29
2018-12-09T09:29:58.018Z,71.46
2018-12-09T09:32:28.107Z,71.44
2018-12-09T09:34:57.524Z,71.31
2018-12-09T09:37:26.687Z,71.24
2018-12-09T09:39:56.555Z,71.08
2018-12-09T09:42:25.737Z,70.79
2018-12-09T09:44:55.029Z,70.62
2018-12-09T09:47:24.967Z,70.62
2018-12-09T09:49:55.055Z,70.79
2018-12-09T09:52:25.051Z,70.92
2018-12-09T09:54:54.431Z,70.65
2018-12-09T09:57:23.777Z,70.66
2018-12-09T09:59:54.196Z,70.64
2018-12-09T10:02:23.589Z,70.74
2018-12-09T10:04:52.715Z,71.05
2018-12-09T10:07:21.807Z,71.23
2018-12-09T10:09:51.167Z,71.37
2018-12-09T10:12:20.499Z,71.18
2018-12-09T10:14:49.591Z,71.04
2018-12-09T10:17:18.739Z,71.32
2018-12-09T10:19:47.819Z,71.05
2018-12-09T10:22:16.894Z,71.27
2018-12-09T10:24:45.954Z,71.25
2018-12-09T10:27:15.765Z,71.48
2018-12-09T10:29:45.933Z,71.71
2018-12-09T10:32:15.066Z,71.72
2018-12-09T10:34:44.159Z,72.08
2018-12-09T10:37:13.271Z,71.98
2018-12-09T10:39:42.422Z,72.01
2018-12-09T10:42:11.509Z,71.63
2018-12-09T10:44:40.877Z,71.61
2018-12-09T10:47:10.449Z,71.57
2018-12-09T10:49:39.842Z,71.54
2018-12-09T10:52:08.926Z,71.63
2018-12-09T10:54:38.039Z,71.40
2018-12-09T10:57:07.404Z,71.27
2018-12-09T10:59:37.353Z,71.06
2018-12-09T11:02:11.944Z,70.88
2018-12-09T11:04:41.058Z,70.78
2018-12-09T11:07:10.230Z,70.33
2018-12-09T11:09:39.430Z,70.09
2018-12-09T11:12:08.527Z,69.94
2018-12-09T11:14:39.330Z,69.73
2018-12-09T11:17:08.740Z,69.16
2018-12-09T11:19:38.497Z,68.93
2018-12-09T11:22:08.495Z,68.78
2018-12-09T11:24:37.798Z,68.95
2018-12-09T11:27:07.107Z,68.70
2018-12-09T11:29:36.257Z,68.58
2018-12-09T11:32:05.453Z,68.77
2018-12-09T11:34:35.580Z,68.41
2018-12-09T11:37:04.827Z,68.66
2018-12-09T11:39:34.494Z,68.83
2018-12-09T11:42:51.675Z,68.74
2018-12-09T11:45:42.939Z,68.68
2018-12-09T11:48:12.436Z,68.67
2018-12-09T11:50:42.663Z,68.71
2018-12-09T11:59:26.743Z,68.77
2018-12-09T12:01:57.122Z,68.42
2018-12-09T12:04:28.057Z,68.62
2018-12-09T12:06:57.772Z,68.40
2018-12-09T12:09:27.374Z,68.19
2018-12-09T12:11:56.831Z,68.43
2018-12-09T12:14:27.249Z,68.45
2018-12-09T12:16:56.502Z,68.36
2018-12-09T12:19:29.782Z,68.44
2018-12-09T12:21:59.591Z,68.27
2018-12-09T12:24:28.995Z,68.18
2018-12-09T12:27:00.727Z,67.86
2018-12-09T12:29:30.235Z,68.24
2018-12-09T12:31:59.390Z,68.12
2018-12-09T12:34:28.616Z,68.23
2018-12-09T12:36:58.209Z,68.30
2018-12-09T12:39:27.440Z,68.19
2018-12-09T12:41:56.578Z,68.38
2018-12-09T12:44:30.312Z,68.69
2018-12-09T12:46:59.766Z,68.54
2018-12-09T12:49:29.928Z,68.30
2018-12-09T12:51:59.990Z,68.25
2018-12-09T12:54:29.174Z,67.66
2018-12-09T12:57:02.666Z,67.66
2018-12-09T12:59:31.965Z,67.81
2018-12-09T13:02:01.185Z,67.64
2018-12-09T13:04:31.177Z,67.82
2018-12-09T13:07:01.246Z,67.99
2018-12-09T13:09:30.503Z,67.73
2018-12-09T13:11:59.999Z,67.71
2018-12-09T13:14:29.911Z,67.52
2018-12-09T13:16:59.030Z,67.12
2018-12-09T13:19:28.203Z,66.60
2018-12-09T13:21:58.427Z,66.87
2018-12-09T13:24:27.687Z,66.88
2018-12-09T13:26:57.776Z,67.05
2018-12-09T13:29:31.892Z,67.12
2018-12-09T13:32:01.173Z,67.15
2018-12-09T13:34:30.558Z,66.92
2018-12-09T13:37:04.171Z,66.73
2018-12-09T13:39:33.544Z,66.61
2018-12-09T13:42:03.324Z,66.64
2018-12-09T13:44:33.076Z,66.77
2018-12-09T14:07:11.678Z,68.11
2018-12-09T14:09:40.845Z,68.09
2018-12-09T14:12:10.031Z,67.65
2018-12-09T14:16:47.312Z,67.68
2018-12-09T14:19:18.091Z,67.74
2018-12-09T14:35:11.882Z,67.60
2018-12-09T14:37:41.360Z,67.60
2018-12-09T14:40:12.318Z,67.40
2018-12-09T14:42:41.495Z,67.54
2018-12-09T14:45:10.892Z,67.34
2018-12-09T14:47:41.109Z,67.46
2018-12-09T14:50:10.419Z,67.41
2018-12-09T14:52:39.807Z,67.56
2018-12-09T14:55:10.499Z,67.79
2018-12-09T14:57:39.061Z,67.89
2018-12-09T15:00:09.562Z,68.11
2018-12-09T15:02:38.806Z,68.50
2018-12-09T15:05:09.539Z,68.65
2018-12-09T15:07:38.685Z,68.80
2018-12-09T15:10:08.983Z,69.14
2018-12-09T15:12:37.697Z,68.87
2018-12-09T15:15:07.357Z,68.82
2018-12-09T15:17:36.603Z,68.65
2018-12-09T15:20:07.452Z,68.32
2018-12-09T15:22:36.627Z,68.31
2018-12-09T15:25:07.159Z,68.59
2018-12-09T15:27:37.331Z,68.50
2018-12-09T15:30:07.592Z,68.48
2018-12-09T15:32:36.882Z,68.75
2018-12-09T15:35:06.710Z,68.93
2018-12-09T15:37:35.872Z,69.00
2018-12-09T15:40:05.528Z,69.14
2018-12-09T15:42:34.727Z,69.05
2018-12-09T15:45:04.352Z,68.85
2018-12-09T15:47:34.156Z,68.87
2018-12-09T15:50:03.804Z,69.12
2018-12-09T15:52:33.497Z,69.21
2018-12-09T15:55:03.506Z,69.35
2018-12-09T15:57:33.113Z,69.46
2018-12-09T16:00:02.445Z,69.49
2018-12-09T16:02:33.624Z,69.46
2018-12-09T16:05:02.785Z,69.80
2018-12-09T16:07:33.084Z,69.68
2018-12-09T16:10:03.160Z,69.88
2018-12-09T16:12:32.473Z,69.74
2018-12-09T16:15:02.724Z,69.96
2018-12-09T16:17:31.954Z,70.06
2018-12-09T16:20:01.896Z,70.10
2018-12-09T16:22:31.047Z,70.19
2018-12-09T16:25:00.496Z,70.05
2018-12-09T16:27:30.413Z,70.32
2018-12-09T16:29:59.695Z,70.35
2018-12-09T16:32:29.076Z,70.26
2018-12-09T16:34:58.184Z,70.37
2018-12-09T16:37:27.336Z,70.22
2018-12-09T16:39:56.428Z,70.15
2018-12-09T16:42:25.700Z,70.00
2018-12-09T16:44:56.874Z,69.85
2018-12-09T16:47:26.134Z,69.69
2018-12-09T16:49:55.297Z,69.86
2018-12-09T16:52:24.504Z,69.80
2018-12-09T16:54:53.586Z,70.12
2018-12-09T16:57:24.018Z,70.26
2018-12-09T16:59:53.453Z,70.20
2018-12-09T17:02:22.617Z,70.27
2018-12-09T17:04:51.966Z,70.41
2018-12-09T17:07:26.291Z,70.28
2018-12-09T17:09:55.843Z,70.35
2018-12-09T17:12:25.293Z,70.32
2018-12-09T17:14:59.112Z,70.35
2018-12-09T17:17:28.379Z,70.14
2018-12-09T17:20:05.914Z,70.40
2018-12-09T17:22:27.657Z,70.49
2018-12-09T17:24:56.813Z,70.39
2018-12-09T17:27:25.994Z,70.76
2018-12-09T17:29:55.243Z,70.60
2018-12-09T17:32:24.419Z,70.31
2018-12-09T17:34:54.178Z,70.53
2018-12-09T17:37:23.453Z,70.36
2018-12-09T17:39:52.701Z,70.19
2018-12-09T17:42:22.496Z,70.33
2018-12-09T17:44:51.614Z,70.36
2018-12-09T17:47:20.785Z,70.28
2018-12-09T17:49:49.973Z,70.07
2018-12-09T17:52:22.094Z,69.94
2018-12-09T17:54:52.214Z,69.93
2018-12-09T17:57:21.682Z,69.65
2018-12-09T17:59:50.806Z,69.80
2018-12-09T18:02:19.960Z,69.67
2018-12-09T18:04:50.043Z,69.84
2018-12-09T18:07:19.194Z,69.54
2018-12-09T18:09:48.521Z,69.58
2018-12-09T18:12:18.450Z,69.67
2018-12-09T18:14:48.516Z,69.68
2018-12-09T18:17:18.269Z,69.64
2018-12-09T18:19:47.819Z,69.87
2018-12-09T18:22:17.088Z,70.21
2018-12-09T18:24:47.337Z,70.32
2018-12-09T18:27:16.620Z,70.29
2018-12-09T18:29:45.904Z,70.48
2018-12-09T18:32:15.211Z,70.53
2018-12-09T18:34:46.170Z,70.21
2018-12-09T18:37:15.343Z,69.89
2018-12-09T18:39:46.176Z,69.56
2018-12-09T18:42:15.417Z,69.73
2018-12-09T18:44:47.858Z,69.80
2018-12-09T18:47:17.326Z,69.75
2018-12-09T18:49:46.615Z,70.01
2018-12-09T18:52:15.753Z,69.93
2018-12-09T18:54:45.877Z,69.53
2018-12-09T18:57:15.009Z,69.44
2018-12-09T18:59:44.256Z,69.23
2018-12-09T19:02:13.421Z,68.86
2018-12-09T19:04:45.168Z,68.81
2018-12-09T19:07:15.984Z,68.81
2018-12-09T19:09:47.914Z,68.86
2018-12-09T19:12:18.363Z,68.79
2018-12-09T19:14:50.532Z,68.64
2018-12-09T19:17:21.567Z,68.53
2018-12-09T19:19:50.978Z,68.59
2018-12-09T19:22:20.460Z,68.59
2018-12-09T19:24:49.659Z,68.45
2018-12-09T19:27:20.343Z,68.19
2018-12-09T19:29:49.692Z,68.35
2018-12-09T19:32:19.396Z,68.11
2018-12-09T19:34:49.642Z,68.26
2018-12-09T19:37:18.784Z,68.15
2018-12-09T19:39:48.189Z,67.69
2018-12-09T19:42:17.489Z,67.52
2018-12-09T19:44:46.656Z,67.52
2018-12-09T19:47:15.829Z,67.48
2018-12-09T19:49:45.260Z,67.44
2018-12-09T19:52:14.367Z,67.66
2018-12-09T19:54:43.535Z,68.00
2018-12-09T19:57:12.825Z,67.92
2018-12-09T19:59:43.150Z,68.11
2018-12-09T20:02:12.904Z,68.07
2018-12-09T20:04:43.690Z,67.90
2018-12-09T20:07:15.701Z,67.59
2018-12-09T20:09:45.405Z,67.68
2018-12-09T20:12:16.004Z,67.49
2018-12-09T20:14:47.478Z,67.39
2018-12-09T20:17:16.863Z,67.32
2018-12-09T20:19:46.149Z,67.02
2018-12-09T20:22:16.519Z,66.91
2018-12-09T20:24:51.113Z,66.73
2018-12-09T20:27:22.088Z,66.74
2018-12-09T20:29:51.865Z,66.78
2018-12-09T20:32:21.500Z,66.92
2018-12-09T20:34:51.348Z,66.85
2018-12-09T20:37:20.577Z,66.93
2018-12-09T20:39:49.819Z,66.95
2018-12-09T20:42:19.059Z,67.21
2018-12-09T20:44:48.274Z,67.36
2018-12-09T20:47:19.212Z,67.25
2018-12-09T20:49:48.414Z,67.43
2018-12-09T20:54:59.699Z,67.26
2018-12-09T20:57:29.818Z,67.30
2018-12-09T20:59:59.778Z,66.91
2018-12-09T21:02:28.948Z,66.63
2018-12-09T21:04:58.237Z,66.39
2018-12-09T21:07:27.436Z,66.23
2018-12-09T21:09:57.696Z,66.49
2018-12-09T21:12:26.848Z,66.63
2018-12-09T21:14:56.878Z,66.77
2018-12-09T21:17:26.143Z,66.90
2018-12-09T21:19:55.456Z,66.86
2018-12-09T21:22:24.932Z,67.08
2018-12-09T21:24:54.252Z,66.70
2018-12-09T21:27:23.379Z,66.62
2018-12-09T21:29:52.696Z,66.46
2018-12-09T21:32:21.790Z,66.55
2018-12-09T21:34:50.912Z,66.66
2018-12-09T21:37:20.041Z,66.65
2018-12-09T21:39:53.144Z,66.63
2018-12-09T21:42:22.318Z,66.45
2018-12-09T21:44:51.718Z,66.23
2018-12-09T21:47:20.896Z,66.10
2018-12-09T21:49:50.049Z,66.24
2018-12-09T21:52:19.502Z,66.14
2018-12-09T21:54:48.699Z,66.01
2018-12-09T21:57:17.874Z,66.02
2018-12-09T21:59:47.279Z,66.06
2018-12-09T22:02:16.490Z,66.07
2018-12-09T22:04:46.406Z,66.04
2018-12-09T22:07:18.879Z,66.43
2018-12-09T22:09:48.029Z,66.36
2018-12-09T22:12:17.153Z,66.50
2018-12-09T22:14:48.436Z,66.53
2018-12-09T22:17:17.632Z,66.33
2018-12-09T22:19:47.850Z,66.53
2018-12-09T22:22:17.569Z,66.40
2018-12-09T22:24:46.755Z,66.69
2018-12-09T22:27:15.971Z,66.89
2018-12-09T22:29:45.330Z,67.06
2018-12-09T22:32:15.162Z,66.85
2018-12-09T22:34:44.448Z,66.75
2018-12-09T22:37:13.612Z,66.62
2018-12-09T22:39:44.205Z,66.73
2018-12-09T22:42:13.342Z,66.96
2018-12-09T22:44:42.691Z,66.86
2018-12-09T22:47:12.832Z,67.02
2018-12-09T22:49:42.024Z,67.04
2018-12-09T22:52:11.217Z,66.96
2018-12-09T22:54:40.357Z,66.69
2018-12-09T22:57:09.458Z,66.70
2018-12-09T22:59:39.571Z,66.50
2018-12-09T23:02:13.792Z,66.64
2018-12-09T23:04:43.125Z,66.61
2018-12-09T23:07:17.390Z,66.57
2018-12-09T23:09:46.552Z,66.68
2018-12-09T23:12:15.954Z,66.68
2018-12-09T23:14:45.237Z,66.58
2018-12-09T23:17:31.870Z,66.49
2018-12-09T23:20:22.247Z,66.34
2018-12-09T23:23:08.095Z,66.06
2018-12-09T23:25:53.583Z,66.18
2018-12-09T23:28:40.266Z,66.43
2018-12-09T23:31:26.622Z,66.47
2018-12-09T23:34:13.493Z,66.69
2018-12-09T23:37:00.587Z,66.69
2018-12-09T23:39:30.429Z,66.81
2018-12-09T23:42:18.201Z,67.14
2018-12-09T23:45:05.445Z,66.87
2018-12-09T23:47:56.425Z,66.85
2018-12-09T23:50:41.234Z,66.75
2018-12-09T23:53:27.230Z,66.76
2018-12-09T23:56:13.860Z,66.62
2018-12-09T23:58:44.685Z,66.36
